Marmon, North Dakota
Current Conditions -  °F | °C
As of 5:52 AM on Thursday 27 Nov 2014 (Local Time) from KISN Reporting Station
Broken Clouds Broken Clouds  
Wind Chill: 10°   Ceiling: 11000
Heat Index: 10°   Visibility: 10mi
Dew Point:   Wind: 0mph
Humidity: 84%   Direction: NA
Pressure: 30.22"   Gusts: NA
Location:  48.5906°N, 103.667°W
Report Text: KISN 271152Z AUTO 00000KT 10SM BKN110 M12/M14 A3022 RMK AO2 SLP280 T11221144 11122 21167 57021
Loading
Personal Weather Stations






























Interactive Weather Map New forecast layout! Learn more

10-Day Weather Forecast

Advertisements
Track Severe Weather on mobile